< Typhoon 196208 1962 Season Typhoon 196210 >
Typhoon 196209 (NORA)
General InformationTrack Information on Google Maps || Disaster Info.ResourceGoogle EarthGE AnimationAtom FeedGeoJSON
Detalied Best Track (Time Zone = UTC)
Year Month Day Hour Lat. Long. Pressure (hPa) Wind (kt) Class Image Chart
1962 7 28 18 18.4 135.0 996 0 2 -- Chart
1962 7 29 00 18.5 134.0 996 0 2 -- Chart
1962 7 29 06 19.0 133.1 990 0 9 -- Chart
1962 7 29 12 19.3 132.2 985 0 9 -- Chart
1962 7 29 18 20.0 132.0 980 0 9 -- Chart
1962 7 30 00 20.8 131.9 980 0 9 -- Chart
1962 7 30 06 21.7 130.1 980 0 9 -- Chart
1962 7 30 12 22.3 129.3 980 0 9 -- Chart
1962 7 30 18 22.8 128.5 975 0 9 -- Chart
1962 7 31 00 23.4 127.7 975 0 9 -- Chart
1962 7 31 06 24.4 127.5 970 0 9 -- Chart
1962 7 31 12 25.3 126.8 970 0 9 -- Chart
1962 7 31 18 26.4 126.2 968 0 9 -- Chart
1962 8 1 00 27.4 125.5 968 0 9 -- Chart
1962 8 1 06 28.4 124.8 968 0 9 -- Chart
1962 8 1 12 29.4 124.2 968 0 9 -- Chart
1962 8 1 18 31.2 123.8 970 0 9 -- Chart
1962 8 2 00 33.0 123.7 970 0 9 -- Chart
1962 8 2 06 34.3 123.7 975 0 9 -- Chart
1962 8 2 12 35.7 124.7 975 0 9 -- Chart
1962 8 2 18 37.2 126.2 985 0 9 -- Chart
1962 8 3 00 39.0 129.0 988 0 9 -- Chart
1962 8 3 06 40.7 132.6 988 0 9 -- Chart
1962 8 3 12 42.0 137.0 988 0 9 -- Chart
1962 8 3 18 42.2 141.3 990 0 6 -- Chart
1962 8 4 00 42.0 147.0 990 0 6 -- Chart
1962 8 4 06 42.0 152.0 986 0 6 -- Chart
1962 8 4 12 44.0 161.0 984 0 6 -- Chart
1962 8 4 18 46.0 167.0 976 0 6 -- Chart
1962 8 5 00 50.3 169.6 972 0 6 -- Chart
1962 8 5 06 51.5 170.5 968 0 6 -- Chart
1962 8 5 12 51.3 171.0 968 0 6 -- Chart
1962 8 5 18 55.0 173.0 970 0 6 -- Chart
1962 8 6 00 57.4 173.5 974 0 6 -- Chart
1962 8 6 06 58.0 177.0 984 0 6 -- Chart
1962 8 6 12 59.0 177.6 984 0 6 -- Chart
1962 8 6 18 61.8 183.9 988 0 6 -- Chart
Japan Meteorological Agency Best Track Data | Correction Date : 1989-06-01
< Typhoon 196208 1962 Season Typhoon 196210 >

Help